Time;durP1;ratioP1;P1;durP2;ratioP2;P2;SDS_P1;SDS_P2;PMS_P1;PMS_P2;Temp;Humidity;BMP_temperature;BMP_pressure;BME280_temperature;BME280_humidity;BME280_pressure;Samples;Min_cycle;Max_cycle;Signal;HPM_P1;HPM_P2
2022/05/03 00:01:27;;;;;;;18.98;16.25;;;12.40;15.40;;;;;;7360863;19;20019;-63
2022/05/03 00:04:05;;;;;;;17.48;15.10;;;12.50;15.30;;;;;;7359608;19;20033;-64
2022/05/03 00:06:47;;;;;;;17.27;15.02;;;12.50;15.30;;;;;;7358253;19;20014;-64
2022/05/03 00:09:24;;;;;;;19.08;16.58;;;12.50;15.60;;;;;;7359993;19;20056;-64
2022/05/03 00:12:02;;;;;;;18.25;15.45;;;12.40;15.70;;;;;;7364480;19;20029;-63
2022/05/03 00:14:38;;;;;;;20.65;16.23;;;12.40;16.60;;;;;;7384308;19;20020;-64
2022/05/03 00:17:09;;;;;;;17.70;15.75;;;12.40;16.60;;;;;;7358332;19;20040;-64
2022/05/03 00:19:39;;;;;;;19.63;16.45;;;12.40;16.50;;;;;;7360249;19;20561;-65
2022/05/03 00:22:13;;;;;;;19.30;15.65;;;12.40;16.50;;;;;;7362599;19;20044;-63
2022/05/03 00:24:44;;;;;;;19.08;16.17;;;12.30;16.60;;;;;;7361324;19;20018;-65
2022/05/03 00:27:16;;;;;;;19.95;15.32;;;12.30;16.60;;;;;;7356744;19;20017;-64
2022/05/03 00:29:46;;;;;;;18.23;14.80;;;12.30;17.20;;;;;;7361300;19;20014;-64
2022/05/03 00:32:18;;;;;;;19.20;15.82;;;12.30;16.20;;;;;;7385422;19;20339;-64
2022/05/03 00:34:48;;;;;;;17.73;15.75;;;12.40;14.90;;;;;;7362033;19;20007;-65
2022/05/03 00:37:20;;;;;;;18.15;15.43;;;12.30;14.70;;;;;;7357993;19;20049;-63
2022/05/03 00:39:50;;;;;;;22.20;17.17;;;12.20;16.50;;;;;;7359547;19;20474;-64
2022/05/03 00:42:23;;;;;;;19.42;16.73;;;12.20;16.90;;;;;;7362253;19;20006;-64
2022/05/03 00:45:04;;;;;;;17.52;15.52;;;12.10;17.50;;;;;;7362087;19;20023;-64
2022/05/03 00:47:44;;;;;;;20.27;17.20;;;12.10;17.90;;;;;;7360117;19;20530;-63
2022/05/03 00:50:22;;;;;;;18.92;15.00;;;12.00;18.70;;;;;;7384104;19;20021;-63
2022/05/03 00:53:00;;;;;;;17.10;15.30;;;11.90;19.50;;;;;;7362860;19;20570;-63
2022/05/03 00:56:00;;;;;;;20.80;16.13;;;11.90;20.00;;;;;;7353552;19;20684;-63
2022/05/03 00:58:46;;;;;;;25.13;16.00;;;11.90;19.90;;;;;;7358653;19;20025;-62
2022/05/03 01:01:23;;;;;;;42.00;18.15;;;11.80;19.90;;;;;;7362165;19;20364;-65
2022/05/03 01:04:04;;;;;;;18.25;16.33;;;11.80;19.90;;;;;;7361834;19;20040;-64
2022/05/03 01:06:43;;;;;;;23.42;17.40;;;11.80;20.10;;;;;;7357582;19;20021;-64
2022/05/03 01:09:22;;;;;;;24.20;16.23;;;11.80;20.50;;;;;;7358465;19;20011;-64
2022/05/03 01:12:00;;;;;;;26.15;18.42;;;11.70;20.60;;;;;;7362932;19;20077;-63
2022/05/03 01:14:49;;;;;;;21.88;16.15;;;11.70;21.50;;;;;;7388682;19;20089;-62
2022/05/03 01:17:26;;;;;;;20.73;16.85;;;11.60;23.10;;;;;;7361368;19;20561;-64
2022/05/03 01:20:06;;;;;;;18.88;15.60;;;11.60;23.10;;;;;;7366328;19;20010;-63
2022/05/03 01:23:15;;;;;;;19.60;16.75;;;11.60;23.10;;;;;;7368083;19;20091;-64
2022/05/03 01:26:13;;;;;;;18.77;16.02;;;11.50;23.10;;;;;;7359028;19;20677;-64
2022/05/03 01:29:06;;;;;;;19.90;16.77;;;11.40;25.10;;;;;;7363981;19;20006;-63
2022/05/03 01:31:38;;;;;;;18.92;16.73;;;11.30;25.60;;;;;;7368355;19;20015;-64
2022/05/03 01:34:12;;;;;;;19.92;17.08;;;11.30;26.30;;;;;;7367811;19;20074;-64
2022/05/03 01:36:49;;;;;;;23.67;17.92;;;11.20;26.50;;;;;;7363561;19;20132;-64
2022/05/03 01:39:31;;;;;;;21.80;17.95;;;11.10;27.50;;;;;;7364799;19;20013;-65
2022/05/03 01:42:11;;;;;;;22.77;17.45;;;11.10;28.30;;;;;;7368160;19;20018;-65
2022/05/03 01:44:55;;;;;;;20.67;17.05;;;11.20;28.70;;;;;;7367544;19;20010;-64
2022/05/03 01:47:33;;;;;;;22.73;19.20;;;11.20;28.30;;;;;;7384512;19;20489;-63
2022/05/03 01:50:19;;;;;;;22.35;17.58;;;11.10;28.80;;;;;;7365915;19;20017;-63
2022/05/03 01:53:06;;;;;;;20.88;18.73;;;11.00;28.60;;;;;;7367905;19;20018;-64
2022/05/03 01:55:59;;;;;;;22.10;18.15;;;11.00;29.50;;;;;;7359869;19;20017;-64
2022/05/03 01:58:38;;;;;;;23.23;18.75;;;11.00;29.50;;;;;;7365542;19;20117;-64
2022/05/03 02:01:20;;;;;;;20.73;18.52;;;10.90;30.00;;;;;;7367125;19;20541;-64
2022/05/03 02:03:52;;;;;;;23.42;18.67;;;10.90;30.70;;;;;;7367862;19;20010;-64
2022/05/03 02:06:31;;;;;;;22.30;18.92;;;10.90;30.90;;;;;;7350437;19;20086;-64
2022/05/03 02:09:05;;;;;;;27.45;19.00;;;10.90;31.40;;;;;;7362923;19;20474;-63
2022/05/03 02:11:51;;;;;;;27.63;19.00;;;10.80;31.20;;;;;;7367025;19;20078;-65
2022/05/03 02:14:47;;;;;;;24.50;18.27;;;10.70;32.40;;;;;;7385664;19;20032;-64
2022/05/03 02:17:37;;;;;;;25.45;18.90;;;10.70;32.90;;;;;;7361946;19;20014;-64
2022/05/03 02:20:27;;;;;;;21.98;19.30;;;10.70;31.50;;;;;;7365536;19;20085;-64
2022/05/03 02:23:17;;;;;;;23.75;19.52;;;10.60;33.10;;;;;;7366318;19;20489;-64
2022/05/03 02:26:07;;;;;;;21.88;18.20;;;10.60;33.90;;;;;;7355638;19;20636;-63
2022/05/03 02:28:41;;;;;;;19.30;17.20;;;10.50;34.00;;;;;;7361512;19;20036;-63
2022/05/03 02:31:16;;;;;;;21.30;19.02;;;10.40;35.90;;;;;;7366250;19;20081;-63
2022/05/03 02:33:51;;;;;;;23.95;19.58;;;10.40;36.70;;;;;;7366538;19;20608;-64
2022/05/03 02:36:27;;;;;;;24.45;18.77;;;10.40;37.10;;;;;;7360417;19;20016;-64
2022/05/03 02:39:05;;;;;;;22.38;18.80;;;10.40;37.00;;;;;;7364189;19;20640;-64
2022/05/03 02:41:39;;;;;;;22.52;19.67;;;10.40;36.60;;;;;;7365715;19;20636;-65
2022/05/03 02:44:09;;;;;;;22.05;17.33;;;10.30;37.10;;;;;;7387023;19;20411;-64
2022/05/03 02:47:03;;;;;;;21.88;17.55;;;10.30;37.30;;;;;;7360269;19;20101;-63
2022/05/03 02:50:04;;;;;;;21.93;17.60;;;10.30;37.10;;;;;;7363749;19;20006;-65
2022/05/03 02:52:49;;;;;;;19.55;17.05;;;10.40;36.50;;;;;;7365486;19;20478;-64
2022/05/03 02:55:24;;;;;;;22.13;17.63;;;10.40;36.20;;;;;;7360916;19;20021;-63
2022/05/03 02:58:06;;;;;;;25.38;17.88;;;10.40;35.30;;;;;;7360772;19;20015;-64
2022/05/03 03:04:01;;;;;;;20.67;17.25;;;10.30;35.00;;;;;;7366061;19;20107;-63
2022/05/03 03:06:36;;;;;;;23.58;18.15;;;10.20;35.80;;;;;;7358906;19;20010;-64
2022/05/03 03:09:08;;;;;;;22.90;18.08;;;10.20;36.30;;;;;;7361773;19;20025;-65
2022/05/03 03:11:55;;;;;;;23.45;18.48;;;10.10;36.30;;;;;;7364593;19;20073;-63
2022/05/03 03:14:35;;;;;;;20.45;18.23;;;10.10;37.10;;;;;;7386103;19;20859;-63
2022/05/03 03:17:09;;;;;;;24.38;19.70;;;10.00;37.70;;;;;;7360234;19;20123;-63
2022/05/03 03:20:05;;;;;;;24.60;20.40;;;9.80;39.10;;;;;;7363365;19;20384;-63
2022/05/03 03:22:42;;;;;;;24.83;19.45;;;9.70;40.70;;;;;;7363994;19;20011;-64
2022/05/03 03:25:14;;;;;;;26.40;19.85;;;9.70;41.60;;;;;;7360765;19;20051;-63
2022/05/03 03:27:46;;;;;;;22.55;18.88;;;9.70;41.80;;;;;;7361909;19;20010;-62
2022/05/03 03:30:23;;;;;;;23.33;18.92;;;9.80;41.90;;;;;;7364968;19;20478;-63
2022/05/03 03:32:56;;;;;;;20.10;17.88;;;9.80;41.80;;;;;;7364878;19;20119;-63
2022/05/03 03:35:26;;;;;;;23.20;17.30;;;9.80;40.80;;;;;;7381628;19;20308;-62
2022/05/03 03:38:04;;;;;;;19.98;16.98;;;9.90;41.00;;;;;;7358943;19;20015;-63
2022/05/03 03:40:34;;;;;;;18.83;16.65;;;9.80;40.00;;;;;;7364548;19;20010;-63
2022/05/03 03:43:04;;;;;;;18.88;16.20;;;9.90;40.40;;;;;;7363154;19;20029;-64
2022/05/03 03:45:34;;;;;;;17.73;15.32;;;9.80;40.80;;;;;;7360750;19;20054;-63
2022/05/03 03:48:04;;;;;;;22.08;16.50;;;9.80;41.00;;;;;;7358455;19;20014;-64
2022/05/03 03:50:37;;;;;;;21.88;17.92;;;9.90;41.00;;;;;;7369436;19;20012;-63
2022/05/03 03:53:10;;;;;;;18.80;16.17;;;9.90;40.80;;;;;;7386143;19;20022;-64
2022/05/03 03:55:40;;;;;;;22.88;17.48;;;10.00;39.80;;;;;;7358854;19;20014;-64
2022/05/03 03:58:10;;;;;;;22.73;18.30;;;10.00;39.60;;;;;;7361113;19;20017;-63
2022/05/03 04:00:40;;;;;;;21.20;18.65;;;10.00;39.80;;;;;;7365150;19;20006;-63
2022/05/03 04:03:11;;;;;;;24.08;18.88;;;10.10;39.00;;;;;;7363911;19;20038;-64
2022/05/03 04:05:41;;;;;;;23.58;19.40;;;9.90;39.80;;;;;;7358487;19;20070;-64
2022/05/03 04:08:13;;;;;;;22.08;18.38;;;10.00;39.10;;;;;;7381791;19;20021;-64
2022/05/03 04:10:43;;;;;;;26.52;18.23;;;10.00;38.20;;;;;;7363604;19;20127;-64
2022/05/03 04:13:15;;;;;;;22.17;18.23;;;10.00;38.20;;;;;;7363572;19;20609;-63
2022/05/03 04:15:45;;;;;;;24.63;18.83;;;9.80;38.80;;;;;;7359833;19;20011;-63
2022/05/03 04:18:15;;;;;;;22.42;18.30;;;9.80;39.70;;;;;;7360863;19;20020;-63
2022/05/03 04:20:45;;;;;;;21.83;17.98;;;9.80;39.90;;;;;;7363417;19;20017;-63
2022/05/03 04:23:25;;;;;;;23.83;18.65;;;9.80;39.10;;;;;;7385151;19;20010;-63
2022/05/03 04:25:59;;;;;;;;;;;10.20;37.30;;;;;;7357266;19;20023;-64
2022/05/03 04:28:29;;;;;;;20.67;17.30;;;10.70;33.40;;;;;;7359754;19;19936;-63
2022/05/03 04:30:59;;;;;;;17.75;15.82;;;11.10;28.60;;;;;;7363912;19;20015;-64
2022/05/03 04:33:29;;;;;;;20.95;16.48;;;11.40;24.20;;;;;;7363805;19;20021;-65
2022/05/03 04:35:59;;;;;;;19.63;15.98;;;11.80;20.90;;;;;;7356846;19;20025;-65
2022/05/03 04:38:32;;;;;;;21.05;15.70;;;11.90;17.10;;;;;;7382382;19;20014;-63
2022/05/03 04:41:02;;;;;;;19.15;15.23;;;12.20;14.10;;;;;;7363800;19;20003;-63
2022/05/03 04:43:32;;;;;;;19.83;15.07;;;12.60;11.70;;;;;;7361915;19;20018;-64
2022/05/03 04:46:02;;;;;;;17.77;14.18;;;12.60;10.50;;;;;;7357552;19;20018;-63
2022/05/03 04:48:32;;;;;;;16.20;14.45;;;12.90;7.90;;;;;;7361810;19;20075;-63
2022/05/03 04:51:02;;;;;;;18.08;13.63;;;12.70;8.20;;;;;;7366785;19;20357;-64
2022/05/03 04:53:35;;;;;;;15.38;13.65;;;13.40;5.10;;;;;;7391854;19;20014;-63
2022/05/03 04:56:05;;;;;;;15.18;13.55;;;13.80;2.90;;;;;;7364883;19;20025;-64
2022/05/03 04:58:35;;;;;;;15.48;13.85;;;14.20;1.00;;;;;;7366782;19;20010;-62
2022/05/03 05:01:05;;;;;;;17.83;13.43;;;13.60;1.00;;;;;;7368966;19;20018;-64
2022/05/03 05:03:35;;;;;;;17.65;13.65;;;13.70;1.00;;;;;;7368148;19;20446;-61
2022/05/03 05:06:05;;;;;;;17.25;14.43;;;14.30;1.00;;;;;;7364751;19;20516;-63
2022/05/03 05:08:38;;;;;;;16.35;14.52;;;14.70;1.00;;;;;;7366403;19;20011;-65
2022/05/03 05:11:08;;;;;;;20.38;14.45;;;15.00;1.00;;;;;;7387883;19;20118;-64
2022/05/03 05:13:39;;;;;;;15.95;14.25;;;14.30;1.00;;;;;;7367945;19;20045;-64
2022/05/03 05:16:10;;;;;;;14.90;13.30;;;14.70;1.00;;;;;;7363731;19;20014;-64
2022/05/03 05:18:40;;;;;;;16.17;13.15;;;14.80;1.00;;;;;;7366069;19;20007;-64
2022/05/03 05:21:10;;;;;;;14.95;13.35;;;14.90;1.00;;;;;;7368694;19;20032;-64
2022/05/03 05:23:42;;;;;;;15.80;13.27;;;15.10;1.00;;;;;;7368669;19;20021;-64
2022/05/03 05:26:12;;;;;;;17.17;13.95;;;15.50;1.00;;;;;;7383724;19;20014;-64
2022/05/03 05:28:42;;;;;;;15.65;13.73;;;15.30;1.00;;;;;;7364801;19;20069;-63
2022/05/03 05:31:12;;;;;;;15.13;13.60;;;14.60;1.00;;;;;;7366687;19;20053;-64
2022/05/03 05:33:42;;;;;;;14.57;13.05;;;15.90;1.00;;;;;;7366352;19;20011;-64
2022/05/03 05:36:12;;;;;;;17.80;13.32;;;15.20;1.00;;;;;;7362777;19;20560;-65
2022/05/03 05:38:44;;;;;;;17.88;13.48;;;15.20;1.00;;;;;;7364499;19;20517;-63
2022/05/03 05:41:17;;;;;;;18.23;13.00;;;15.50;1.00;;;;;;7389666;19;20318;-64
2022/05/03 05:43:47;;;;;;;14.73;13.18;;;15.60;1.00;;;;;;7367109;19;20011;-63
2022/05/03 05:46:18;;;;;;;16.38;13.45;;;14.20;1.00;;;;;;7361801;19;20007;-63
2022/05/03 05:48:48;;;;;;;17.35;14.63;;;12.90;3.60;;;;;;7364932;19;20021;-64
2022/05/03 05:51:18;;;;;;;17.90;15.60;;;12.90;6.00;;;;;;7365932;19;20021;-64
2022/05/03 05:53:48;;;;;;;20.30;16.70;;;13.10;5.20;;;;;;7367060;19;20328;-64
2022/05/03 05:56:17;;;;;;;21.45;16.70;;;13.10;6.20;;;;;;7383777;19;20006;-64
2022/05/03 05:58:49;;;;;;;19.40;15.65;;;13.60;5.60;;;;;;7362233;19;20018;-64
2022/05/03 06:01:19;;;;;;;24.02;16.17;;;13.60;3.40;;;;;;7367759;19;20016;-64
2022/05/03 06:03:49;;;;;;;20.77;16.33;;;13.60;3.30;;;;;;7365239;19;20034;-63
2022/05/03 06:06:18;;;;;;;17.65;15.20;;;13.50;2.70;;;;;;7363353;19;20585;-63
2022/05/03 06:08:51;;;;;;;20.80;16.25;;;13.60;4.80;;;;;;7363482;19;20025;-63
2022/05/03 06:11:21;;;;;;;26.13;16.08;;;13.30;5.00;;;;;;7387240;19;20015;-64
2022/05/03 06:13:51;;;;;;;23.30;15.55;;;13.40;6.00;;;;;;7366184;19;20014;-64
2022/05/03 06:16:20;;;;;;;17.30;14.75;;;13.90;4.00;;;;;;7359847;19;20021;-63
2022/05/03 06:18:50;;;;;;;18.75;15.65;;;14.00;3.00;;;;;;7362890;19;20470;-64
2022/05/03 06:21:20;;;;;;;21.30;14.77;;;14.10;2.20;;;;;;7366724;19;20134;-64
2022/05/03 06:23:53;;;;;;;17.50;14.68;;;13.90;2.30;;;;;;7365550;19;20015;-65
2022/05/03 06:26:23;;;;;;;19.85;16.10;;;14.10;1.00;;;;;;7381537;19;20025;-64
2022/05/03 06:28:53;;;;;;;17.35;14.80;;;14.40;1.00;;;;;;7361540;19;20066;-63
2022/05/03 06:31:24;;;;;;;18.02;15.00;;;14.50;1.00;;;;;;7362407;19;20450;-65
2022/05/03 06:33:54;;;;;;;18.10;15.77;;;14.80;1.00;;;;;;7364671;19;20010;-64
2022/05/03 06:36:24;;;;;;;21.23;15.93;;;14.80;1.00;;;;;;7361348;19;20011;-65
2022/05/03 06:38:56;;;;;;;18.80;15.32;;;14.40;1.00;;;;;;7363327;19;20090;-63
2022/05/03 06:41:26;;;;;;;25.08;16.23;;;14.90;1.00;;;;;;7388214;19;20007;-64
2022/05/03 06:43:57;;;;;;;18.75;14.50;;;15.00;1.00;;;;;;7364301;19;20081;-64
2022/05/03 06:46:28;;;;;;;20.98;15.65;;;15.00;1.00;;;;;;7358820;19;20010;-64
2022/05/03 06:48:58;;;;;;;19.80;14.52;;;15.00;1.00;;;;;;7362430;19;20015;-63
2022/05/03 06:51:27;;;;;;;19.40;14.65;;;15.30;1.00;;;;;;7364195;19;20025;-65
2022/05/03 06:54:01;;;;;;;16.17;13.45;;;15.10;1.00;;;;;;7364715;19;20036;-64
2022/05/03 06:56:35;;;;;;;16.02;12.98;;;15.00;1.00;;;;;;7380375;19;20014;-64
2022/05/03 06:59:07;;;;;;;15.68;12.43;;;15.30;1.00;;;;;;7362796;19;20081;-64
2022/05/03 07:01:37;;;;;;;13.38;11.63;;;15.40;1.00;;;;;;7365058;19;20017;-64
2022/05/03 07:04:14;;;;;;;12.98;10.85;;;15.50;1.00;;;;;;7363526;19;20158;-64
2022/05/03 07:06:43;;;;;;;12.20;10.90;;;15.60;1.00;;;;;;7360117;19;20014;-65
2022/05/03 07:09:16;;;;;;;13.00;10.88;;;15.50;1.00;;;;;;7362737;19;20482;-64
2022/05/03 07:11:46;;;;;;;14.60;10.55;;;16.00;1.00;;;;;;7362403;19;20499;-63
2022/05/03 07:14:16;;;;;;;11.10;10.00;;;15.50;1.00;;;;;;7387069;19;20022;-63
2022/05/03 07:16:46;;;;;;;12.20;10.75;;;15.80;1.00;;;;;;7357628;19;20014;-63
2022/05/03 07:24:43;;;;;;;12.82;9.38;;;16.20;1.00;;;;;;7364471;19;20014;-64
2022/05/03 07:27:13;;;;;;;13.00;9.00;;;16.50;1.00;;;;;;7358070;19;20007;-63
2022/05/03 07:29:44;;;;;;;10.90;8.52;;;17.00;1.00;;;;;;7361513;19;20010;-65
2022/05/03 07:32:14;;;;;;;10.77;9.68;;;17.50;1.00;;;;;;7385036;19;20010;-64
2022/05/03 07:34:44;;;;;;;9.45;8.30;;;17.20;1.00;;;;;;7363259;19;20111;-64
2022/05/03 07:37:13;;;;;;;13.30;9.32;;;16.80;1.00;;;;;;7357893;19;20017;-65
2022/05/03 07:39:46;;;;;;;10.90;8.73;;;16.70;1.00;;;;;;7360600;19;20089;-64
2022/05/03 07:42:16;;;;;;;12.85;9.15;;;17.00;1.00;;;;;;7363728;19;20411;-64
2022/05/03 07:44:46;;;;;;;10.23;9.23;;;16.70;1.00;;;;;;7363315;19;20014;-64
2022/05/03 07:47:16;;;;;;;9.07;8.18;;;17.00;1.00;;;;;;7378763;19;20053;-64
2022/05/03 07:49:46;;;;;;;8.90;8.00;;;17.40;1.00;;;;;;7358911;19;20021;-64
2022/05/03 07:52:16;;;;;;;8.35;7.40;;;17.20;1.00;;;;;;7358299;19;20007;-64
2022/05/03 07:54:49;;;;;;;7.93;7.13;;;17.10;1.00;;;;;;7358227;19;20021;-64
2022/05/03 07:57:19;;;;;;;9.10;7.43;;;17.00;1.00;;;;;;7352112;19;20017;-64
2022/05/03 07:59:49;;;;;;;8.57;6.90;;;17.10;1.00;;;;;;7355996;19;20136;-64
2022/05/03 08:02:19;;;;;;;8.27;6.82;;;17.30;1.00;;;;;;7381583;19;20316;-63
2022/05/03 08:04:51;;;;;;;6.45;5.85;;;16.90;1.00;;;;;;7359068;19;20015;-64
2022/05/03 08:07:21;;;;;;;8.48;6.57;;;17.20;1.00;;;;;;7357020;19;20428;-63
2022/05/03 08:09:54;;;;;;;8.77;6.53;;;17.40;1.00;;;;;;7359505;19;20010;-63
2022/05/03 08:12:24;;;;;;;7.68;6.80;;;17.90;1.00;;;;;;7362354;19;20006;-65
2022/05/03 08:14:56;;;;;;;7.00;6.18;;;17.80;1.00;;;;;;7361432;19;20000;-63
2022/05/03 08:17:28;;;;;;;8.20;7.10;;;18.00;1.00;;;;;;7377942;19;20018;-64
2022/05/03 08:19:58;;;;;;;13.70;10.43;;;17.80;1.00;;;;;;7361014;19;20025;-64
2022/05/03 08:22:28;;;;;;;7.18;5.60;;;18.20;1.00;;;;;;7363155;19;20350;-64
2022/05/03 08:25:00;;;;;;;6.15;5.55;;;18.40;1.00;;;;;;7366611;19;20010;-64
2022/05/03 08:27:30;;;;;;;8.18;6.10;;;18.30;1.00;;;;;;7363031;19;20010;-63
2022/05/03 08:30:00;;;;;;;6.60;5.55;;;17.90;1.00;;;;;;7367695;19;20010;-63
2022/05/03 08:32:30;;;;;;;6.75;5.97;;;17.40;1.00;;;;;;7389167;19;20615;-63
2022/05/03 08:35:00;;;;;;;6.38;5.43;;;17.90;1.00;;;;;;7369175;19;20006;-64
2022/05/03 08:42:58;;;;;;;8.57;5.20;;;18.80;1.00;;;;;;7369256;19;20053;-64
2022/05/03 08:45:28;;;;;;;6.03;5.43;;;18.70;1.00;;;;;;7365297;19;20074;-65
2022/05/03 08:48:01;;;;;;;5.78;5.18;;;18.40;1.00;;;;;;7361222;19;20056;-64
2022/05/03 08:50:34;;;;;;;6.82;4.35;;;18.70;1.00;;;;;;7391667;19;20022;-62
2022/05/03 08:53:06;;;;;;;5.00;3.85;;;19.50;1.00;;;;;;7365715;19;20014;-63
2022/05/03 08:55:42;;;;;;;5.93;4.50;;;19.50;1.00;;;;;;7362718;19;20082;-64
2022/05/03 08:58:18;;;;;;;4.00;3.50;;;19.40;1.00;;;;;;7363129;19;20043;-66
2022/05/03 09:00:48;;;;;;;5.07;3.60;;;19.10;1.00;;;;;;7369493;19;20245;-63
2022/05/03 09:03:20;;;;;;;4.18;3.72;;;19.10;1.00;;;;;;7369543;19;20010;-64
2022/05/03 09:05:52;;;;;;;3.85;3.55;;;19.40;1.00;;;;;;7361773;19;20081;-64
2022/05/03 09:08:24;;;;;;;4.82;3.65;;;19.50;1.00;;;;;;7386463;19;20470;-64
2022/05/03 09:10:56;;;;;;;3.83;3.40;;;19.40;1.00;;;;;;7368534;19;20496;-64
2022/05/03 09:13:45;;;;;;;4.05;3.45;;;19.50;1.00;;;;;;7367354;19;20014;-64
2022/05/03 09:16:17;;;;;;;5.70;4.35;;;19.60;1.00;;;;;;7362372;19;20077;-64
2022/05/03 09:18:49;;;;;;;5.75;3.80;;;19.00;1.00;;;;;;7364899;19;20082;-64
2022/05/03 09:24:07;;;;;;;4.65;3.97;;;19.20;1.00;;;;;;7366899;19;20019;-65
2022/05/03 09:26:40;;;;;;;7.90;3.80;;;19.50;1.00;;;;;;7362196;19;20106;-66
2022/05/03 09:29:11;;;;;;;4.15;3.75;;;19.30;1.00;;;;;;7387136;19;20006;-64
2022/05/03 09:31:42;;;;;;;4.90;3.53;;;18.80;1.00;;;;;;7367236;19;20007;-64
2022/05/03 09:34:25;;;;;;;5.05;4.55;;;19.00;1.00;;;;;;7366323;19;20010;-64
2022/05/03 09:36:58;;;;;;;7.32;4.63;;;19.00;1.00;;;;;;7362154;19;20021;-64
2022/05/03 09:39:41;;;;;;;8.25;4.65;;;19.00;1.00;;;;;;7364223;19;20021;-64
2022/05/03 09:42:15;;;;;;;6.65;4.32;;;19.10;1.00;;;;;;7366863;19;20017;-64
2022/05/03 09:44:56;;;;;;;5.68;4.18;;;19.00;1.00;;;;;;7366316;19;20029;-64
2022/05/03 09:47:27;;;;;;;6.63;5.00;;;19.10;1.00;;;;;;7384434;19;20058;-63
2022/05/03 09:49:57;;;;;;;4.93;4.45;;;19.30;1.00;;;;;;7365110;19;20010;-63
2022/05/03 09:52:30;;;;;;;5.50;5.00;;;19.60;1.00;;;;;;7365208;19;20010;-65
2022/05/03 09:55:06;;;;;;;5.82;4.60;;;19.50;1.00;;;;;;7363420;19;20043;-65
2022/05/03 09:57:39;;;;;;;6.10;4.85;;;19.70;1.00;;;;;;7362741;19;20006;-65
2022/05/03 10:00:11;;;;;;;6.68;6.00;;;19.50;1.00;;;;;;7364796;19;20053;-64
2022/05/03 10:02:43;;;;;;;7.45;5.40;;;19.80;1.00;;;;;;7368203;19;20494;-65
2022/05/03 10:05:21;;;;;;;6.68;6.07;;;19.90;1.00;;;;;;7384532;19;20094;-67
2022/05/03 10:07:52;;;;;;;7.78;6.28;;;18.80;1.00;;;;;;7359593;19;20011;-64
2022/05/03 10:10:23;;;;;;;7.22;5.53;;;19.60;1.00;;;;;;7366366;19;20018;-65
2022/05/03 10:12:56;;;;;;;5.30;4.80;;;20.00;1.00;;;;;;7366495;19;20117;-65
2022/05/03 10:21:00;;;;;;;7.65;5.68;;;20.30;1.00;;;;;;7363472;19;20019;-64
2022/05/03 10:23:33;;;;;;;7.68;5.68;;;20.20;1.00;;;;;;7387312;19;20017;-63
2022/05/03 10:26:05;;;;;;;7.70;5.90;;;19.70;1.00;;;;;;7364412;19;20027;-64
2022/05/03 10:29:05;;;;;;;7.47;5.95;;;19.90;1.00;;;;;;7358382;19;20018;-65
2022/05/03 10:31:54;;;;;;;6.70;5.28;;;19.90;1.00;;;;;;7362110;19;20021;-65
2022/05/03 10:34:43;;;;;;;8.60;5.93;;;20.30;1.00;;;;;;7365018;19;20029;-65
2022/05/03 10:37:16;;;;;;;7.78;6.10;;;20.10;1.00;;;;;;7359784;19;20027;-65
2022/05/03 10:39:54;;;;;;;8.32;6.55;;;19.90;1.00;;;;;;7362477;19;20118;-65
2022/05/03 10:42:26;;;;;;;7.55;6.05;;;19.90;1.00;;;;;;7365354;19;20014;-64
2022/05/03 10:45:03;;;;;;;6.95;6.25;;;19.90;1.00;;;;;;7363923;19;20062;-64
2022/05/03 10:47:47;;;;;;;10.77;6.28;;;19.60;1.00;;;;;;7376939;19;20086;-66
2022/05/03 10:50:21;;;;;;;;;;;20.20;1.00;;;;;;7389659;19;20006;-65
2022/05/03 10:53:20;;;;;;;8.07;6.10;;;20.40;1.00;;;;;;7363468;19;20032;-64
2022/05/03 10:56:16;;;;;;;9.25;6.43;;;20.60;1.00;;;;;;7360245;19;20006;-64
2022/05/03 10:58:48;;;;;;;6.32;5.72;;;20.70;1.00;;;;;;7359990;19;20025;-64
2022/05/03 11:01:20;;;;;;;6.88;6.28;;;20.50;1.00;;;;;;7365288;19;20014;-65
2022/05/03 11:04:12;;;;;;;7.53;6.47;;;20.30;1.00;;;;;;7365353;19;20011;-64
2022/05/03 11:06:46;;;;;;;6.28;5.68;;;20.40;1.00;;;;;;7358281;19;20014;-64
2022/05/03 11:09:18;;;;;;;7.57;5.95;;;19.90;1.00;;;;;;7361760;19;20007;-64
2022/05/03 11:11:55;;;;;;;7.65;5.63;;;20.20;1.00;;;;;;7361084;19;20530;-65
2022/05/03 11:14:47;;;;;;;9.15;5.90;;;20.00;1.00;;;;;;7383458;19;20014;-64
2022/05/03 11:17:18;;;;;;;10.10;6.63;;;20.00;1.00;;;;;;7358474;19;20078;-66
2022/05/03 11:19:55;;;;;;;8.00;5.80;;;20.20;1.00;;;;;;7360970;19;20017;-64
2022/05/03 11:22:27;;;;;;;15.80;6.07;;;20.20;1.00;;;;;;7363807;19;20010;-64
2022/05/03 11:25:07;;;;;;;8.10;5.10;;;20.20;1.00;;;;;;7363263;19;20566;-64
2022/05/03 11:27:38;;;;;;;9.48;5.78;;;20.10;1.00;;;;;;7359882;19;20376;-64
2022/05/03 11:30:15;;;;;;;13.50;5.95;;;20.40;1.00;;;;;;7364232;19;20114;-63
2022/05/03 11:32:46;;;;;;;6.88;6.00;;;20.50;1.00;;;;;;7363965;19;20090;-63
2022/05/03 11:35:24;;;;;;;10.75;6.30;;;20.30;1.00;;;;;;7381121;19;20483;-64
2022/05/03 11:37:56;;;;;;;6.05;4.72;;;20.30;1.00;;;;;;7356147;19;20801;-64
2022/05/03 11:40:27;;;;;;;7.22;5.88;;;21.00;1.00;;;;;;7362995;19;20319;-64
2022/05/03 11:42:57;;;;;;;6.38;5.38;;;20.80;1.00;;;;;;7364337;19;20033;-64
2022/05/03 11:45:27;;;;;;;10.70;5.93;;;20.70;1.00;;;;;;7359576;19;20011;-63
2022/05/03 11:47:57;;;;;;;5.97;4.88;;;21.20;1.00;;;;;;7355940;19;20019;-65
2022/05/03 11:56:05;;;;;;;10.50;4.82;;;21.80;1.00;;;;;;7359747;19;20048;-63
2022/05/03 11:58:40;;;;;;;5.80;5.18;;;20.60;1.00;;;;;;7355481;19;20010;-64
2022/05/03 12:01:17;;;;;;;5.28;4.40;;;20.70;1.00;;;;;;7363287;19;20094;-63
2022/05/03 12:03:49;;;;;;;7.47;5.43;;;20.70;1.00;;;;;;7361424;19;20601;-63
2022/05/03 12:06:22;;;;;;;7.50;5.20;;;20.50;1.00;;;;;;7359117;19;20011;-66
2022/05/03 12:08:55;;;;;;;10.20;4.35;;;20.30;1.00;;;;;;7358110;19;20419;-64
2022/05/03 12:11:25;;;;;;;8.52;4.65;;;20.20;1.00;;;;;;7384841;19;20520;-64
2022/05/03 12:13:55;;;;;;;6.78;4.60;;;20.30;1.00;;;;;;7361744;19;20099;-64
2022/05/03 12:16:28;;;;;;;7.53;5.30;;;20.20;1.00;;;;;;7358290;19;20011;-64
2022/05/03 12:18:58;;;;;;;5.97;4.70;;;20.30;1.00;;;;;;7359664;19;20454;-65
2022/05/03 12:21:31;;;;;;;5.47;4.32;;;20.20;1.00;;;;;;7360622;19;20007;-63
2022/05/03 12:24:04;;;;;;;5.07;4.40;;;20.70;1.00;;;;;;7361688;19;20086;-65
2022/05/03 12:26:41;;;;;;;4.70;4.30;;;20.90;1.00;;;;;;7371387;19;20778;-64
2022/05/03 12:29:11;;;;;;;6.32;4.13;;;21.40;1.00;;;;;;7381392;19;20090;-64
2022/05/03 12:31:45;;;;;;;3.95;3.55;;;21.50;1.00;;;;;;7362128;19;20010;-65
2022/05/03 12:34:28;;;;;;;6.35;3.50;;;21.70;1.00;;;;;;7358532;19;20026;-64
2022/05/03 12:37:08;;;;;;;4.00;3.60;;;21.60;1.00;;;;;;7355385;19;20076;-64
2022/05/03 12:39:39;;;;;;;5.18;3.70;;;21.50;1.00;;;;;;7357570;19;20526;-64
2022/05/03 12:42:12;;;;;;;4.20;3.80;;;21.50;1.00;;;;;;7362691;19;20010;-64
2022/05/03 12:44:51;;;;;;;6.78;3.45;;;21.70;1.00;;;;;;7360170;19;20086;-64
2022/05/03 12:47:22;;;;;;;3.85;3.45;;;22.00;1.00;;;;;;7378110;19;20036;-63
2022/05/03 12:49:51;;;;;;;4.78;3.92;;;21.80;1.00;;;;;;7357891;19;20015;-64
2022/05/03 12:52:25;;;;;;;7.53;4.00;;;21.60;1.00;;;;;;7361508;19;20014;-65
2022/05/03 12:54:54;;;;;;;3.90;3.20;;;21.50;1.00;;;;;;7359667;19;20475;-63
2022/05/03 13:00:11;;;;;;;3.28;2.97;;;21.90;1.00;;;;;;7358149;19;20543;-64
2022/05/03 13:02:41;;;;;;;2.75;2.55;;;21.70;1.00;;;;;;7361498;19;20375;-63
2022/05/03 13:05:11;;;;;;;3.20;2.90;;;21.90;1.00;;;;;;7379619;19;20027;-64
2022/05/03 13:07:44;;;;;;;4.75;2.53;;;21.80;1.00;;;;;;7357195;19;20082;-65
2022/05/03 13:10:14;;;;;;;4.38;2.40;;;21.80;1.00;;;;;;7364753;19;20011;-63
2022/05/03 13:12:43;;;;;;;2.90;2.50;;;21.70;1.00;;;;;;7369560;19;20010;-63
2022/05/03 13:15:14;;;;;;;3.35;3.05;;;21.60;1.00;;;;;;7364121;19;20018;-64
2022/05/03 13:17:52;;;;;;;6.80;3.55;;;20.00;1.00;;;;;;7362167;19;20002;-64
2022/05/03 13:20:31;;;;;;;8.38;3.63;;;19.80;1.00;;;;;;7388933;19;20052;-64
2022/05/03 13:23:08;;;;;;;8.38;3.88;;;19.50;1.00;;;;;;7369213;19;20018;-63
2022/05/03 13:25:39;;;;;;;;;;;19.40;1.00;;;;;;7363838;19;20010;-63
2022/05/03 13:28:09;;;;;;;9.02;4.00;;;19.00;1.00;;;;;;7359370;19;20379;-64
2022/05/03 13:30:42;;;;;;;6.18;3.95;;;19.00;1.00;;;;;;7367542;19;20015;-64
2022/05/03 13:33:12;;;;;;;6.18;3.70;;;18.90;1.00;;;;;;7365761;19;20014;-64
2022/05/03 13:41:10;;;;;;;6.07;3.20;;;19.10;1.00;;;;;;7367855;19;20013;-64
2022/05/03 13:43:40;;;;;;;4.45;3.20;;;19.10;1.00;;;;;;7366014;19;20070;-64
2022/05/03 13:46:10;;;;;;;4.43;3.75;;;19.10;1.00;;;;;;7365042;19;20022;-65
2022/05/03 13:48:41;;;;;;;6.57;4.63;;;18.90;1.00;;;;;;7359409;19;20157;-64
2022/05/03 13:51:11;;;;;;;5.00;3.90;;;18.90;1.00;;;;;;7367080;19;20016;-64
2022/05/03 13:53:46;;;;;;;7.78;3.60;;;18.50;1.00;;;;;;7366105;19;20018;-64
2022/05/03 13:56:16;;;;;;;4.85;3.97;;;18.90;1.00;;;;;;7387663;19;20014;-64